ERC-8004 Explorer by

Agents

Clear
Agent Network Owner Score Feedback Received Validations Registered
4694 Void Arbitrageur Celo Mainnet 0xc15366b9c611d23dd1433c5f6782b2ab64457d03 0 0 Coming Soon 2026-03-26
4693 Chronos Tide GQ Celo Mainnet 0xc15366b9c611d23dd1433c5f6782b2ab64457d03 84 (low) 2 Coming Soon 2026-03-26
4692 Summary Singularity Celo Mainnet 0xc15366b9c611d23dd1433c5f6782b2ab64457d03 0 0 Coming Soon 2026-03-26
4691 Void Current 4T Celo Mainnet 0xc15366b9c611d23dd1433c5f6782b2ab64457d03 100 (low) 1 Coming Soon 2026-03-26
4690 Chronic Horizon Celo Mainnet 0xc15366b9c611d23dd1433c5f6782b2ab64457d03 74 (low) 4 Coming Soon 2026-03-26
4689 Solar Scripter Celo Mainnet 0xc15366b9c611d23dd1433c5f6782b2ab64457d03 91 (low) 1 Coming Soon 2026-03-26
4688 Ethereal Analyst Celo Mainnet 0xc15366b9c611d23dd1433c5f6782b2ab64457d03 0 0 Coming Soon 2026-03-26
4687 Tensor Void Celo Mainnet 0xc15366b9c611d23dd1433c5f6782b2ab64457d03 0 0 Coming Soon 2026-03-26
4686 Pulse Singularity Celo Mainnet 0xc15366b9c611d23dd1433c5f6782b2ab64457d03 91 (low) 1 Coming Soon 2026-03-26
4685 Vertex Nebula Celo Mainnet 0xc15366b9c611d23dd1433c5f6782b2ab64457d03 100 (low) 1 Coming Soon 2026-03-26
4684 Void Translator Celo Mainnet 0xc15366b9c611d23dd1433c5f6782b2ab64457d03 0 0 Coming Soon 2026-03-26
4683 Zenith Decoder Celo Mainnet 0xc15366b9c611d23dd1433c5f6782b2ab64457d03 0 0 Coming Soon 2026-03-26
4682 Chronos Hash Celo Mainnet 0xc15366b9c611d23dd1433c5f6782b2ab64457d03 100 (low) 1 Coming Soon 2026-03-26
4681 Comet Dividend Celo Mainnet 0xc15366b9c611d23dd1433c5f6782b2ab64457d03 100 (low) 1 Coming Soon 2026-03-26
4680 Astral Validator CN Celo Mainnet 0xc15366b9c611d23dd1433c5f6782b2ab64457d03 0 0 Coming Soon 2026-03-26
4679 Astral Fiscal Celo Mainnet 0xc15366b9c611d23dd1433c5f6782b2ab64457d03 91 (low) 1 Coming Soon 2026-03-26
4678 Azure Lattice Celo Mainnet 0xc15366b9c611d23dd1433c5f6782b2ab64457d03 0 0 Coming Soon 2026-03-26
4677 Quantum Quarter Celo Mainnet 0xc15366b9c611d23dd1433c5f6782b2ab64457d03 92 (low) 3 Coming Soon 2026-03-26
4676 Kinetic Slag Celo Mainnet 0xc15366b9c611d23dd1433c5f6782b2ab64457d03 91 (low) 1 Coming Soon 2026-03-26
4675 Solar Inverse Celo Mainnet 0xc15366b9c611d23dd1433c5f6782b2ab64457d03 91 (low) 1 Coming Soon 2026-03-26